Time;durP1;ratioP1;P1;durP2;ratioP2;P2;SDS_P1;SDS_P2;PMS_P1;PMS_P2;Temp;Humidity;BMP_temperature;BMP_pressure;BME280_temperature;BME280_humidity;BME280_pressure;Samples;Min_cycle;Max_cycle;Signal;HPM_P1;HPM_P2
2020/12/23 00:00:08;;;;;;;90.72;33.03;;;10.00;96.40;;;;;;4986226;28;20026;-89
2020/12/23 00:02:34;;;;;;;93.60;34.67;;;10.00;96.40;;;;;;5003184;28;20030;-86
2020/12/23 00:05:00;;;;;;;91.05;35.13;;;10.00;96.40;;;;;;4988092;28;20025;-87
2020/12/23 00:07:26;;;;;;;75.78;32.08;;;10.00;96.40;;;;;;4998792;28;20109;-90
2020/12/23 00:09:51;;;;;;;72.47;29.67;;;9.90;96.40;;;;;;4991131;28;20100;-89
2020/12/23 00:12:17;;;;;;;70.70;31.13;;;10.00;96.50;;;;;;4983375;28;20038;-90
2020/12/23 00:14:43;;;;;;;73.03;31.63;;;9.90;96.50;;;;;;4987969;28;20021;-89
2020/12/23 00:17:08;;;;;;;73.22;30.38;;;10.00;96.50;;;;;;4990412;28;20478;-88
2020/12/23 00:19:34;;;;;;;73.90;33.05;;;10.00;96.50;;;;;;4985906;28;20038;-88
2020/12/23 00:22:00;;;;;;;69.88;30.58;;;9.90;96.50;;;;;;4989196;28;20044;-88
2020/12/23 00:24:26;;;;;;;70.32;30.77;;;9.90;96.50;;;;;;4986445;28;20496;-89
2020/12/23 00:26:51;;;;;;;92.75;35.40;;;10.00;96.50;;;;;;4990296;28;20116;-88
2020/12/23 00:29:17;;;;;;;74.50;32.33;;;10.00;96.50;;;;;;4981101;28;20121;-88
2020/12/23 00:31:42;;;;;;;75.15;32.90;;;10.00;96.50;;;;;;4991910;28;20030;-87
2020/12/23 00:34:08;;;;;;;66.70;31.50;;;10.00;96.50;;;;;;4988428;28;20057;-88
2020/12/23 00:36:33;;;;;;;86.95;33.97;;;10.00;96.50;;;;;;5000741;28;20056;-88
2020/12/23 00:38:59;;;;;;;86.13;34.65;;;10.00;96.50;;;;;;4996046;28;20474;-88
2020/12/23 00:41:24;;;;;;;77.97;32.83;;;10.00;96.50;;;;;;4988855;28;20501;-89
2020/12/23 00:43:50;;;;;;;83.32;33.17;;;10.00;96.50;;;;;;4987212;28;20033;-88
2020/12/23 00:46:15;;;;;;;83.90;33.08;;;10.00;96.50;;;;;;4991068;28;20480;-88
2020/12/23 00:48:42;;;;;;;96.78;37.67;;;10.00;96.60;;;;;;4986902;28;20045;-88
2020/12/23 00:51:12;;;;;;;99.47;37.28;;;10.10;96.60;;;;;;5006733;28;20025;-88
2020/12/23 00:53:42;;;;;;;94.05;35.63;;;10.00;96.60;;;;;;4995015;28;20027;-88
2020/12/23 00:56:08;;;;;;;93.28;35.88;;;10.10;96.60;;;;;;4986891;28;20479;-88
2020/12/23 00:58:34;;;;;;;86.03;34.53;;;10.10;96.70;;;;;;4988269;28;20046;-89
2020/12/23 01:01:00;;;;;;;94.32;36.00;;;10.20;96.70;;;;;;4999981;28;20386;-88
2020/12/23 01:03:26;;;;;;;107.13;37.22;;;10.20;96.70;;;;;;5009750;28;20061;-88
2020/12/23 01:05:52;;;;;;;105.35;37.13;;;10.10;96.70;;;;;;5002534;28;20057;-88
2020/12/23 01:08:17;;;;;;;99.57;37.03;;;10.20;96.70;;;;;;4985864;28;20034;-88
2020/12/23 01:10:47;;;;;;;103.88;38.00;;;10.20;96.70;;;;;;4996167;28;20022;-88
2020/12/23 01:13:13;;;;;;;95.70;36.03;;;10.20;96.80;;;;;;5006122;28;20027;-88
2020/12/23 01:15:39;;;;;;;83.90;34.15;;;10.20;96.80;;;;;;5003573;28;20033;-88
2020/12/23 01:18:04;;;;;;;86.28;33.47;;;10.30;96.80;;;;;;4988663;28;20031;-89
2020/12/23 01:20:30;;;;;;;87.05;35.30;;;10.30;96.80;;;;;;4987092;28;20025;-88
2020/12/23 01:22:56;;;;;;;81.18;33.30;;;10.30;96.70;;;;;;4985809;28;20032;-88
2020/12/23 01:25:21;;;;;;;83.45;35.13;;;10.30;96.80;;;;;;4986642;28;20068;-88
2020/12/23 01:27:47;;;;;;;83.80;33.00;;;10.30;96.80;;;;;;4987039;28;20038;-88
2020/12/23 01:30:14;;;;;;;95.45;36.92;;;10.30;96.80;;;;;;4997987;28;20024;-88
2020/12/23 01:32:39;;;;;;;117.50;39.38;;;10.30;96.70;;;;;;4997967;28;20030;-88
2020/12/23 01:35:05;;;;;;;114.90;39.08;;;10.30;96.70;;;;;;4986884;28;20429;-91
2020/12/23 01:37:30;;;;;;;115.80;38.88;;;10.40;96.80;;;;;;4996389;28;20026;-89
2020/12/23 01:39:56;;;;;;;130.18;39.55;;;10.40;96.80;;;;;;4982073;28;20046;-88
2020/12/23 01:42:21;;;;;;;122.97;40.53;;;10.30;96.70;;;;;;5009519;28;20386;-86
2020/12/23 01:44:47;;;;;;;123.93;41.47;;;10.40;96.70;;;;;;4996399;28;20022;-86
2020/12/23 01:47:20;;;;;;;121.72;40.53;;;10.40;96.80;;;;;;4992340;28;20030;-87
2020/12/23 01:49:45;;;;;;;121.60;42.55;;;10.40;96.90;;;;;;4996701;28;20180;-89
2020/12/23 01:52:11;;;;;;;128.25;39.80;;;10.40;96.90;;;;;;4992887;28;20121;-89
2020/12/23 01:54:38;;;;;;;129.40;42.58;;;10.40;96.90;;;;;;4982330;28;20030;-88
2020/12/23 01:57:10;;;;;;;106.60;37.92;;;10.40;96.90;;;;;;4982755;28;20023;-86
2020/12/23 01:59:37;;;;;;;127.18;40.22;;;10.40;96.90;;;;;;4986877;28;20083;-86
2020/12/23 02:02:28;;;;;;;131.23;41.17;;;10.40;96.90;;;;;;4993903;28;20030;-89
2020/12/23 02:04:53;;;;;;;149.27;39.95;;;10.40;96.90;;;;;;5001171;28;20030;-87
2020/12/23 02:07:20;;;;;;;102.65;37.00;;;10.40;96.90;;;;;;4990669;28;20038;-88
2020/12/23 02:09:48;;;;;;;129.82;40.92;;;10.50;97.00;;;;;;4987237;28;20036;-88
2020/12/23 02:12:15;;;;;;;127.55;41.03;;;10.40;96.90;;;;;;4989359;28;20029;-87
2020/12/23 02:14:40;;;;;;;122.15;40.92;;;10.50;96.90;;;;;;4992147;28;20085;-89
2020/12/23 02:17:06;;;;;;;138.20;39.80;;;10.40;96.90;;;;;;4996445;28;20037;-88
2020/12/23 02:19:31;;;;;;;140.90;41.13;;;10.40;96.90;;;;;;4990353;28;20037;-86
2020/12/23 02:21:59;;;;;;;188.15;45.72;;;10.40;96.90;;;;;;4989837;28;20092;-87
2020/12/23 02:24:25;;;;;;;194.02;43.33;;;10.40;97.00;;;;;;4989025;28;20030;-89
2020/12/23 02:26:51;;;;;;;148.75;40.17;;;10.40;97.00;;;;;;4997560;28;20104;-88
2020/12/23 02:29:17;;;;;;;116.95;38.25;;;10.40;97.00;;;;;;5009091;28;20544;-88
2020/12/23 02:31:43;;;;;;;108.35;36.97;;;10.40;97.10;;;;;;5011221;28;20030;-88
2020/12/23 02:34:08;;;;;;;113.43;38.38;;;10.40;97.10;;;;;;4988951;28;20458;-88
2020/12/23 02:36:34;;;;;;;104.18;37.13;;;10.40;97.10;;;;;;4993602;28;20021;-89
2020/12/23 02:38:59;;;;;;;146.77;42.10;;;10.50;97.10;;;;;;5004230;28;20157;-89
2020/12/23 02:41:25;;;;;;;128.10;40.88;;;10.50;97.10;;;;;;5004132;28;20113;-89
2020/12/23 02:43:50;;;;;;;115.47;38.88;;;10.50;97.10;;;;;;5003474;28;20363;-88
2020/12/23 02:46:18;;;;;;;135.02;41.83;;;10.50;97.20;;;;;;5005016;28;20026;-86
2020/12/23 02:48:43;;;;;;;105.22;39.15;;;10.50;97.20;;;;;;5003630;28;20034;-88
2020/12/23 02:51:09;;;;;;;106.60;38.00;;;10.50;97.20;;;;;;5003387;28;20428;-88
2020/12/23 02:53:34;;;;;;;130.00;41.25;;;10.60;97.20;;;;;;5003671;28;20048;-88
2020/12/23 02:56:04;;;;;;;133.38;40.70;;;10.60;97.20;;;;;;4991222;28;20026;-89
2020/12/23 02:58:29;;;;;;;122.28;38.97;;;10.60;97.20;;;;;;4993105;28;20046;-88
2020/12/23 03:00:55;;;;;;;122.88;40.70;;;10.60;97.20;;;;;;4991368;28;20033;-87
2020/12/23 03:03:20;;;;;;;118.82;40.45;;;10.60;97.20;;;;;;5000553;28;20030;-87
2020/12/23 03:05:46;;;;;;;101.57;38.40;;;10.60;97.20;;;;;;4990033;28;20041;-87
2020/12/23 03:08:12;;;;;;;102.43;36.40;;;10.70;97.20;;;;;;4992581;28;20041;-87
2020/12/23 03:10:38;;;;;;;98.70;38.97;;;10.70;97.20;;;;;;4985869;28;20091;-87
2020/12/23 03:13:03;;;;;;;91.93;37.85;;;10.70;97.20;;;;;;4987231;28;20030;-88
2020/12/23 03:15:29;;;;;;;94.15;37.88;;;10.70;97.20;;;;;;4983024;28;20026;-88
2020/12/23 03:17:54;;;;;;;91.00;35.45;;;10.70;97.20;;;;;;4988380;28;20044;-88
2020/12/23 03:20:20;;;;;;;86.38;36.70;;;10.70;97.20;;;;;;5000225;28;20077;-88
2020/12/23 03:22:45;;;;;;;90.55;37.72;;;10.80;97.20;;;;;;5002607;28;20505;-88
2020/12/23 03:25:10;;;;;;;90.03;37.75;;;10.80;97.20;;;;;;4982070;28;20044;-88
2020/12/23 03:27:36;;;;;;;86.47;36.70;;;10.80;97.20;;;;;;5001493;28;21288;-88
2020/12/23 03:30:03;;;;;;;88.68;37.92;;;10.80;97.20;;;;;;5000643;28;20018;-88
2020/12/23 03:32:29;;;;;;;89.47;35.85;;;10.80;97.20;;;;;;4988556;28;20034;-87
2020/12/23 03:34:54;;;;;;;87.57;37.47;;;10.80;97.40;;;;;;4983889;28;20524;-88
2020/12/23 03:37:20;;;;;;;91.72;36.38;;;10.80;97.20;;;;;;5003659;28;20485;-88
2020/12/23 03:39:45;;;;;;;101.95;41.03;;;10.90;97.20;;;;;;5001524;28;20030;-88
2020/12/23 03:42:11;;;;;;;113.20;47.00;;;10.90;97.20;;;;;;5001315;28;20026;-87
2020/12/23 03:44:36;;;;;;;113.57;43.00;;;10.90;97.20;;;;;;5002926;28;20460;-87
2020/12/23 03:47:02;;;;;;;121.35;41.67;;;10.90;97.50;;;;;;5002832;28;20104;-88
2020/12/23 03:49:27;;;;;;;115.00;38.72;;;10.90;97.20;;;;;;4987876;28;20052;-88
2020/12/23 03:51:53;;;;;;;122.97;41.38;;;10.90;97.20;;;;;;4985327;28;20095;-88
2020/12/23 03:54:19;;;;;;;106.43;39.03;;;10.90;97.20;;;;;;4984499;28;20387;-88
2020/12/23 03:56:44;;;;;;;135.80;44.00;;;10.90;97.20;;;;;;4999331;28;20108;-87
2020/12/23 03:59:09;;;;;;;105.63;40.03;;;10.90;97.20;;;;;;4987389;28;20054;-88
2020/12/23 04:01:35;;;;;;;130.75;41.70;;;10.90;97.20;;;;;;4987656;28;20030;-87
2020/12/23 04:04:01;;;;;;;138.07;42.92;;;10.90;97.20;;;;;;5003064;28;20033;-88
2020/12/23 04:06:26;;;;;;;108.00;42.00;;;10.90;97.30;;;;;;4985449;28;20092;-88
2020/12/23 04:08:52;;;;;;;143.27;43.22;;;10.90;97.30;;;;;;4987475;28;20046;-87
2020/12/23 04:11:17;;;;;;;135.82;40.92;;;10.90;97.30;;;;;;4991171;28;20033;-87
2020/12/23 04:13:43;;;;;;;126.82;42.20;;;10.90;97.30;;;;;;4986856;28;20036;-88
2020/12/23 04:16:08;;;;;;;131.65;43.33;;;10.90;97.30;;;;;;4985866;28;20072;-87
2020/12/23 04:18:34;;;;;;;120.70;42.30;;;10.90;97.30;;;;;;4988623;28;20072;-87
2020/12/23 04:20:59;;;;;;;164.30;44.35;;;10.90;97.30;;;;;;4984398;28;20037;-86
2020/12/23 04:23:25;;;;;;;144.30;42.13;;;10.90;97.30;;;;;;4983401;28;20022;-87
2020/12/23 04:25:50;;;;;;;141.10;41.55;;;10.90;97.40;;;;;;4984512;28;20026;-87
2020/12/23 04:28:16;;;;;;;128.80;40.72;;;10.90;97.30;;;;;;4985593;28;20056;-87
2020/12/23 04:30:44;;;;;;;147.50;42.33;;;10.90;97.40;;;;;;5002390;28;20064;-87
2020/12/23 04:33:09;;;;;;;174.93;45.53;;;10.90;97.40;;;;;;4986530;28;20023;-87
2020/12/23 04:35:36;;;;;;;124.85;41.15;;;10.90;97.30;;;;;;4999425;28;20754;-87
2020/12/23 04:38:02;;;;;;;127.03;40.30;;;10.90;97.40;;;;;;5002653;28;20026;-87
2020/12/23 04:40:27;;;;;;;132.95;41.67;;;10.90;97.40;;;;;;5003508;28;20018;-86
2020/12/23 04:42:53;;;;;;;147.70;44.08;;;10.90;97.40;;;;;;4997981;28;20034;-87
2020/12/23 04:45:19;;;;;;;143.45;45.00;;;10.90;97.40;;;;;;4983702;28;20038;-87
2020/12/23 04:47:46;;;;;;;128.63;42.80;;;10.90;97.40;;;;;;4996691;28;20128;-87
2020/12/23 04:50:14;;;;;;;139.05;42.05;;;11.00;97.50;;;;;;5001472;28;20077;-88
2020/12/23 04:52:40;;;;;;;117.25;40.53;;;11.00;97.50;;;;;;5001823;28;20182;-87
2020/12/23 04:55:06;;;;;;;118.15;40.40;;;11.00;97.50;;;;;;4983326;28;21463;-87
2020/12/23 04:57:35;;;;;;;109.88;41.00;;;11.00;97.50;;;;;;4988834;28;20460;-86
2020/12/23 05:00:04;;;;;;;106.10;37.85;;;11.10;97.60;;;;;;4985992;28;20030;-87
2020/12/23 05:02:29;;;;;;;106.47;38.28;;;11.10;97.60;;;;;;4987509;28;20026;-86
2020/12/23 05:04:55;;;;;;;129.65;39.05;;;11.10;97.50;;;;;;4982867;28;20532;-86
2020/12/23 05:07:21;;;;;;;121.03;37.60;;;11.10;97.50;;;;;;4982113;28;20033;-87
2020/12/23 05:09:50;;;;;;;121.38;37.88;;;11.10;97.50;;;;;;4988547;28;20089;-86
2020/12/23 05:12:20;;;;;;;123.90;38.70;;;11.10;97.50;;;;;;4987630;28;20030;-86
2020/12/23 05:14:46;;;;;;;103.22;39.90;;;11.10;97.50;;;;;;4997503;28;20249;-86
2020/12/23 05:17:15;;;;;;;133.52;40.90;;;11.10;97.50;;;;;;5007473;28;20026;-85
2020/12/23 05:19:40;;;;;;;106.28;37.15;;;11.10;97.50;;;;;;5010266;28;20022;-86
2020/12/23 05:22:09;;;;;;;99.25;34.67;;;11.20;97.60;;;;;;4996441;28;20034;-86
2020/12/23 05:24:37;;;;;;;92.68;33.50;;;11.20;97.60;;;;;;5003493;28;20033;-86
2020/12/23 05:27:05;;;;;;;97.93;33.03;;;11.20;97.80;;;;;;4987674;28;20088;-86
2020/12/23 05:29:31;;;;;;;84.07;31.35;;;11.20;97.60;;;;;;4988257;28;20140;-87
2020/12/23 05:31:57;;;;;;;76.45;29.88;;;11.10;97.50;;;;;;4986300;28;20061;-86
2020/12/23 05:34:23;;;;;;;69.72;28.00;;;11.20;97.60;;;;;;4988774;28;20069;-87
2020/12/23 05:36:51;;;;;;;63.42;27.00;;;11.10;97.60;;;;;;4999949;28;20053;-86
2020/12/23 05:39:16;;;;;;;53.83;24.48;;;11.20;97.70;;;;;;5004219;28;20026;-86
2020/12/23 05:41:43;;;;;;;53.45;24.23;;;11.20;97.60;;;;;;5004281;28;20436;-87
2020/12/23 05:44:19;;;;;;;43.05;21.63;;;11.20;97.70;;;;;;5004275;28;20059;-87
2020/12/23 05:46:47;;;;;;;38.72;20.25;;;11.30;97.70;;;;;;4984403;28;20033;-87
2020/12/23 05:49:15;;;;;;;39.08;19.63;;;11.30;97.70;;;;;;4988181;28;20061;-87
2020/12/23 05:51:41;;;;;;;25.38;15.40;;;11.30;97.70;;;;;;4998486;28;20049;-87
2020/12/23 05:54:07;;;;;;;28.20;15.73;;;11.30;97.70;;;;;;5002224;28;20026;-87
2020/12/23 05:56:38;;;;;;;28.25;17.15;;;11.30;97.70;;;;;;4988400;28;20489;-87
2020/12/23 05:59:04;;;;;;;24.35;14.38;;;11.40;97.80;;;;;;4991087;28;20045;-88
2020/12/23 06:01:34;;;;;;;23.70;14.48;;;11.40;97.80;;;;;;4986145;28;20209;-88
2020/12/23 06:04:12;;;;;;;22.73;14.52;;;11.50;97.80;;;;;;4993802;28;20486;-88
2020/12/23 06:06:45;;;;;;;23.30;15.18;;;11.50;97.80;;;;;;4989810;28;20033;-88
2020/12/23 06:09:11;;;;;;;22.15;14.00;;;11.50;97.80;;;;;;4991533;28;20397;-88
2020/12/23 06:11:44;;;;;;;23.30;14.88;;;11.50;97.80;;;;;;5005312;28;20024;-88
2020/12/23 06:14:11;;;;;;;24.58;14.93;;;11.50;97.80;;;;;;4993466;28;20037;-88
2020/12/23 06:16:45;;;;;;;21.95;14.45;;;11.50;97.80;;;;;;4996319;28;20022;-88
2020/12/23 06:19:22;;;;;;;21.52;13.55;;;11.50;97.80;;;;;;5000602;28;20048;-88
2020/12/23 06:21:49;;;;;;;18.92;13.13;;;11.60;97.80;;;;;;5008870;28;20080;-88
2020/12/23 06:24:15;;;;;;;21.33;14.60;;;11.60;97.80;;;;;;5012940;28;20026;-88
2020/12/23 06:26:43;;;;;;;21.77;14.05;;;11.60;97.80;;;;;;4996693;28;20022;-89
2020/12/23 06:29:11;;;;;;;19.10;12.80;;;11.70;97.80;;;;;;4998688;28;20406;-89
2020/12/23 06:31:40;;;;;;;15.80;11.75;;;11.70;97.80;;;;;;4992365;28;20069;-89
2020/12/23 06:34:06;;;;;;;18.00;11.68;;;11.80;97.80;;;;;;5008430;28;20030;-89
2020/12/23 06:36:35;;;;;;;17.17;12.02;;;11.80;97.80;;;;;;4988902;28;20117;-89
2020/12/23 06:39:19;;;;;;;18.63;12.27;;;11.80;97.70;;;;;;4991275;28;20030;-88
2020/12/23 06:41:45;;;;;;;19.95;11.50;;;11.90;97.70;;;;;;4997293;28;20030;-88
2020/12/23 06:44:11;;;;;;;13.43;10.13;;;11.90;97.70;;;;;;4998744;28;20541;-89
2020/12/23 06:46:59;;;;;;;13.50;10.82;;;11.90;97.70;;;;;;4992894;28;20090;-89
2020/12/23 06:49:39;;;;;;;12.93;9.38;;;11.90;97.70;;;;;;4996303;28;20041;-89
2020/12/23 06:52:28;;;;;;;12.65;9.55;;;12.00;97.70;;;;;;4996899;28;20030;-88
2020/12/23 06:55:02;;;;;;;15.38;9.98;;;12.00;97.60;;;;;;4990523;28;20034;-89
2020/12/23 06:57:37;;;;;;;13.75;9.48;;;12.10;97.60;;;;;;4982259;28;20038;-88
2020/12/23 07:00:06;;;;;;;13.02;9.38;;;12.10;97.50;;;;;;4998009;28;20026;-87
2020/12/23 07:02:42;;;;;;;12.90;8.70;;;12.10;97.50;;;;;;4998512;28;20030;-89
2020/12/23 07:05:09;;;;;;;11.85;8.88;;;12.10;97.50;;;;;;4996134;28;20026;-88
2020/12/23 07:07:40;;;;;;;11.35;8.75;;;12.10;97.40;;;;;;4997017;28;20026;-88
2020/12/23 07:10:10;;;;;;;11.85;8.45;;;12.10;97.40;;;;;;4990081;28;20030;-89
2020/12/23 07:12:38;;;;;;;9.88;7.18;;;12.10;97.40;;;;;;5014564;28;20469;-88
2020/12/23 07:15:12;;;;;;;11.23;8.05;;;12.10;97.30;;;;;;4997841;28;20037;-89
2020/12/23 07:17:40;;;;;;;10.95;7.45;;;12.10;97.30;;;;;;4994583;28;20033;-89
2020/12/23 07:20:07;;;;;;;11.13;7.07;;;12.10;97.30;;;;;;4995196;28;20026;-89
2020/12/23 07:22:33;;;;;;;9.95;7.70;;;12.10;97.30;;;;;;4998183;28;20036;-88
2020/12/23 07:25:00;;;;;;;10.77;7.75;;;12.10;97.30;;;;;;4996850;28;20057;-88
2020/12/23 07:27:28;;;;;;;10.45;7.78;;;12.10;97.30;;;;;;4998161;28;20033;-88
2020/12/23 07:30:07;;;;;;;10.48;7.38;;;12.10;97.30;;;;;;4994834;28;20409;-88
2020/12/23 07:32:33;;;;;;;9.48;6.93;;;12.10;97.30;;;;;;4994150;28;20034;-89
2020/12/23 07:34:59;;;;;;;8.45;6.18;;;12.20;97.20;;;;;;4994526;28;20498;-88
2020/12/23 07:37:41;;;;;;;8.15;6.18;;;12.20;97.20;;;;;;4995923;28;20029;-88
2020/12/23 07:40:14;;;;;;;8.75;6.70;;;12.20;97.20;;;;;;4997280;28;20030;-87
2020/12/23 07:42:47;;;;;;;7.28;5.60;;;12.20;97.10;;;;;;4993562;28;20025;-88
2020/12/23 07:45:13;;;;;;;8.82;6.70;;;12.20;97.10;;;;;;4997277;28;20065;-88
2020/12/23 07:47:39;;;;;;;8.25;6.88;;;12.20;97.10;;;;;;4993098;28;20038;-88
2020/12/23 07:50:05;;;;;;;10.05;6.63;;;12.20;97.00;;;;;;4992128;28;20041;-88
2020/12/23 07:52:31;;;;;;;8.95;6.53;;;12.20;97.00;;;;;;5004208;28;20466;-90
2020/12/23 07:55:14;;;;;;;7.55;5.95;;;12.20;96.90;;;;;;4995462;28;20041;-89
2020/12/23 07:57:40;;;;;;;7.05;5.28;;;12.30;96.90;;;;;;4977438;28;20038;-90
2020/12/23 08:00:07;;;;;;;9.18;5.43;;;12.20;96.90;;;;;;4990745;28;20029;-88
2020/12/23 08:02:33;;;;;;;6.78;4.88;;;12.20;96.90;;;;;;4999575;28;20095;-88
2020/12/23 08:04:59;;;;;;;6.72;4.95;;;12.20;96.80;;;;;;5011697;28;20044;-89
2020/12/23 08:07:25;;;;;;;6.63;4.65;;;12.20;96.80;;;;;;4995985;28;20112;-90
2020/12/23 08:09:51;;;;;;;5.68;4.30;;;12.20;96.80;;;;;;4985891;28;20066;-89
2020/12/23 08:12:21;;;;;;;6.68;4.35;;;12.20;96.80;;;;;;4995150;28;20060;-89
2020/12/23 08:14:49;;;;;;;7.10;4.68;;;12.20;96.80;;;;;;4995461;28;20033;-89
2020/12/23 08:17:21;;;;;;;5.53;3.85;;;12.20;96.80;;;;;;4992006;28;20029;-90
2020/12/23 08:20:05;;;;;;;5.65;3.80;;;12.20;96.80;;;;;;4989318;28;20034;-89
2020/12/23 08:22:31;;;;;;;4.65;3.88;;;12.20;96.80;;;;;;4994879;28;20092;-89
2020/12/23 08:25:15;;;;;;;6.65;4.25;;;12.10;96.90;;;;;;4987946;28;20113;-90
2020/12/23 08:27:47;;;;;;;6.00;4.03;;;12.10;96.90;;;;;;5007572;28;20058;-89
2020/12/23 08:30:32;;;;;;;6.60;4.00;;;12.20;96.90;;;;;;4997965;28;20025;-86
2020/12/23 08:32:58;;;;;;;5.43;3.67;;;12.10;96.90;;;;;;5004673;28;20030;-88
2020/12/23 08:35:28;;;;;;;4.50;3.47;;;12.10;96.90;;;;;;4995681;28;20109;-89
2020/12/23 08:37:54;;;;;;;5.68;4.05;;;12.10;96.90;;;;;;5008983;28;20018;-89
2020/12/23 08:40:20;;;;;;;7.90;4.43;;;12.20;96.90;;;;;;5014122;28;20550;-88
2020/12/23 08:42:56;;;;;;;5.10;3.75;;;12.20;96.90;;;;;;5014003;28;20025;-89
2020/12/23 08:45:24;;;;;;;4.65;3.50;;;12.20;96.80;;;;;;4993267;28;20132;-88
2020/12/23 08:47:50;;;;;;;7.53;3.35;;;12.20;96.80;;;;;;4995324;28;20048;-88
2020/12/23 08:50:18;;;;;;;8.18;3.90;;;12.20;96.80;;;;;;5013992;28;20018;-88
2020/12/23 08:52:51;;;;;;;4.82;3.00;;;12.20;96.80;;;;;;4995293;28;20022;-88
2020/12/23 08:55:24;;;;;;;4.90;3.13;;;12.20;96.80;;;;;;4994235;28;20023;-89
2020/12/23 08:58:06;;;;;;;3.88;2.45;;;12.20;96.80;;;;;;5006113;28;20089;-89
2020/12/23 09:00:32;;;;;;;4.38;2.75;;;12.20;96.80;;;;;;5007381;28;20390;-89
2020/12/23 09:02:58;;;;;;;4.28;2.78;;;12.20;96.80;;;;;;5012162;28;20025;-89
2020/12/23 09:05:28;;;;;;;3.85;2.40;;;12.20;96.80;;;;;;5012742;28;20107;-88
2020/12/23 09:08:11;;;;;;;3.80;2.47;;;12.20;96.80;;;;;;4996108;28;20049;-89
2020/12/23 09:10:38;;;;;;;4.72;2.85;;;12.20;96.70;;;;;;4980959;28;20035;-88
2020/12/23 09:13:11;;;;;;;3.35;2.50;;;12.20;96.70;;;;;;5009368;28;20030;-88
2020/12/23 09:15:38;;;;;;;4.00;2.40;;;12.20;96.70;;;;;;5013316;28;20089;-88
2020/12/23 09:18:14;;;;;;;4.32;2.95;;;12.20;96.70;;;;;;5001986;28;20025;-89
2020/12/23 09:20:41;;;;;;;4.55;2.83;;;12.30;96.70;;;;;;5017326;28;20037;-87
2020/12/23 09:23:08;;;;;;;5.65;3.40;;;12.20;96.70;;;;;;5003721;28;20037;-87
2020/12/23 09:25:35;;;;;;;4.68;3.22;;;12.20;96.70;;;;;;5017269;28;20073;-88
2020/12/23 09:28:09;;;;;;;5.22;2.80;;;12.20;96.70;;;;;;5010922;28;20440;-89
2020/12/23 09:30:43;;;;;;;4.90;3.65;;;12.30;96.70;;;;;;4994617;28;20089;-89
2020/12/23 09:33:14;;;;;;;6.47;3.40;;;12.30;96.70;;;;;;5004014;28;20026;-88
2020/12/23 09:35:41;;;;;;;5.80;3.78;;;12.30;96.70;;;;;;4998350;28;20033;-89
2020/12/23 09:38:27;;;;;;;5.85;3.75;;;12.20;96.60;;;;;;5000001;28;20024;-87
2020/12/23 09:40:57;;;;;;;5.93;3.65;;;12.30;96.60;;;;;;5009694;28;20037;-87
2020/12/23 09:43:28;;;;;;;5.25;3.42;;;12.30;96.60;;;;;;4985919;28;20537;-87
2020/12/23 09:45:55;;;;;;;6.18;3.00;;;12.30;96.60;;;;;;5007085;28;20053;-89
2020/12/23 09:48:23;;;;;;;4.50;3.50;;;12.30;96.60;;;;;;5010633;28;20038;-89
2020/12/23 09:50:49;;;;;;;4.97;3.67;;;12.30;96.60;;;;;;4983622;28;20050;-89
2020/12/23 09:53:15;;;;;;;6.72;4.38;;;12.30;96.60;;;;;;4998213;28;20072;-88
2020/12/23 09:55:42;;;;;;;6.35;3.97;;;12.30;96.60;;;;;;4999594;28;20050;-88
2020/12/23 09:58:08;;;;;;;6.65;3.90;;;12.30;96.60;;;;;;4995928;28;20046;-89
2020/12/23 10:00:34;;;;;;;7.53;4.40;;;12.30;96.50;;;;;;4998754;28;20018;-89
2020/12/23 10:02:59;;;;;;;5.50;3.80;;;12.30;96.50;;;;;;4999364;28;20026;-89
2020/12/23 10:05:26;;;;;;;7.43;3.90;;;12.30;96.50;;;;;;4999448;28;20038;-89
2020/12/23 10:07:51;;;;;;;5.95;3.80;;;12.30;96.50;;;;;;4998123;28;20106;-88
2020/12/23 10:10:17;;;;;;;6.85;3.40;;;12.30;96.40;;;;;;4999048;28;20433;-89
2020/12/23 10:12:43;;;;;;;5.95;3.35;;;12.30;96.40;;;;;;4995408;28;20133;-89
2020/12/23 10:15:08;;;;;;;4.40;3.60;;;12.30;96.40;;;;;;4999329;28;20093;-88
2020/12/23 10:17:35;;;;;;;4.93;3.42;;;12.30;96.40;;;;;;4999043;28;20079;-89
2020/12/23 10:20:00;;;;;;;5.60;3.08;;;12.30;96.40;;;;;;4996703;28;20030;-89
2020/12/23 10:22:26;;;;;;;4.78;3.65;;;12.30;96.40;;;;;;4996766;28;20535;-89
2020/12/23 10:24:52;;;;;;;4.35;3.20;;;12.30;96.40;;;;;;4982897;28;20041;-89
2020/12/23 10:27:17;;;;;;;5.07;4.10;;;12.30;96.40;;;;;;4995913;28;20049;-89
2020/12/23 10:29:43;;;;;;;4.85;3.45;;;12.40;96.40;;;;;;5010954;28;20088;-88
2020/12/23 10:32:08;;;;;;;3.42;3.00;;;12.30;96.40;;;;;;4998467;28;20034;-88
2020/12/23 10:34:34;;;;;;;5.30;3.42;;;12.30;96.40;;;;;;4998861;28;20041;-89
2020/12/23 10:36:59;;;;;;;5.40;3.17;;;12.30;96.30;;;;;;5012103;28;20167;-89
2020/12/23 10:39:25;;;;;;;6.13;3.15;;;12.40;96.30;;;;;;4998310;28;20466;-88
2020/12/23 10:41:53;;;;;;;3.90;3.00;;;12.30;96.30;;;;;;4998451;28;20025;-89
2020/12/23 10:44:19;;;;;;;5.90;3.30;;;12.30;96.30;;;;;;4998272;28;20026;-88
2020/12/23 10:46:45;;;;;;;5.55;3.17;;;12.30;96.30;;;;;;5002693;28;20074;-89
2020/12/23 10:49:11;;;;;;;5.38;3.22;;;12.30;96.30;;;;;;4994005;28;20038;-89
2020/12/23 10:51:36;;;;;;;5.28;3.28;;;12.30;96.30;;;;;;4989823;28;20117;-88
2020/12/23 10:54:02;;;;;;;5.43;4.10;;;12.20;96.30;;;;;;4998531;28;20044;-87
2020/12/23 10:56:27;;;;;;;5.55;4.95;;;12.20;96.30;;;;;;4992761;28;20041;-87
2020/12/23 10:58:53;;;;;;;7.18;5.18;;;12.20;96.30;;;;;;4994753;28;20042;-87
2020/12/23 11:01:19;;;;;;;10.38;5.32;;;12.10;96.40;;;;;;4997801;28;20034;-86
2020/12/23 11:03:45;;;;;;;5.97;4.60;;;12.10;96.40;;;;;;4998280;28;20120;-86
2020/12/23 11:06:15;;;;;;;5.53;4.15;;;12.10;96.40;;;;;;4996257;28;20037;-87
2020/12/23 11:08:42;;;;;;;6.80;4.80;;;12.10;96.50;;;;;;4986804;28;20030;-87
2020/12/23 11:11:12;;;;;;;5.97;4.63;;;12.10;96.50;;;;;;4999592;28;20405;-86
2020/12/23 11:13:39;;;;;;;7.57;5.32;;;12.10;96.60;;;;;;4993726;28;20026;-87
2020/12/23 11:16:05;;;;;;;9.20;6.13;;;12.10;96.60;;;;;;4997267;28;20117;-86
2020/12/23 11:18:31;;;;;;;9.30;5.85;;;12.10;96.60;;;;;;4989027;28;20033;-86
2020/12/23 11:20:56;;;;;;;6.97;5.45;;;12.00;96.60;;;;;;4996868;28;20030;-86
2020/12/23 11:23:26;;;;;;;6.78;5.57;;;12.00;96.60;;;;;;4996836;28;20504;-86
2020/12/23 11:25:52;;;;;;;6.88;5.90;;;12.00;96.70;;;;;;4996376;28;20125;-87
2020/12/23 11:28:17;;;;;;;7.75;6.13;;;12.00;96.70;;;;;;4996966;28;20125;-86
2020/12/23 11:30:43;;;;;;;8.38;5.63;;;12.00;96.70;;;;;;4996608;28;20026;-87
2020/12/23 11:33:08;;;;;;;8.00;4.97;;;12.10;96.80;;;;;;5014470;28;20127;-87
2020/12/23 11:35:34;;;;;;;5.68;4.75;;;12.00;96.80;;;;;;5014005;28;20056;-87
2020/12/23 11:37:59;;;;;;;7.05;4.40;;;12.10;96.80;;;;;;5014897;28;20026;-88
2020/12/23 11:40:25;;;;;;;5.60;4.53;;;12.10;96.90;;;;;;5014065;28;20124;-88
2020/12/23 11:42:50;;;;;;;3.92;3.50;;;12.00;96.90;;;;;;5014785;28;20440;-88
2020/12/23 11:45:16;;;;;;;5.10;3.85;;;12.10;96.90;;;;;;4997216;28;20033;-87
2020/12/23 11:47:41;;;;;;;5.07;4.22;;;12.10;96.90;;;;;;5014420;28;20045;-87
2020/12/23 11:50:07;;;;;;;6.03;4.00;;;12.10;96.90;;;;;;5014805;28;20022;-88
2020/12/23 11:52:32;;;;;;;5.90;4.55;;;12.10;96.90;;;;;;4996294;28;20030;-88
2020/12/23 11:54:58;;;;;;;4.85;3.33;;;12.20;96.90;;;;;;4997576;28;20029;-87
2020/12/23 11:57:23;;;;;;;5.40;3.42;;;12.20;96.90;;;;;;4996594;28;20034;-87
2020/12/23 11:59:49;;;;;;;4.70;3.55;;;12.20;96.80;;;;;;5014697;28;20065;-88
2020/12/23 12:02:14;;;;;;;3.33;3.03;;;12.30;96.80;;;;;;4988736;28;20033;-88
2020/12/23 12:04:40;;;;;;;3.55;3.25;;;12.30;96.80;;;;;;4986261;28;20029;-87
2020/12/23 12:07:05;;;;;;;5.22;3.25;;;12.30;96.80;;;;;;5007265;28;20022;-87
2020/12/23 12:09:31;;;;;;;3.47;2.75;;;12.30;96.80;;;;;;4996260;28;20037;-88
2020/12/23 12:11:57;;;;;;;4.10;2.58;;;12.30;96.80;;;;;;4985095;28;20018;-87
2020/12/23 12:14:24;;;;;;;3.05;2.28;;;12.30;96.70;;;;;;4997087;28;20496;-88
2020/12/23 12:16:49;;;;;;;2.65;2.25;;;12.40;96.70;;;;;;4997177;28;20021;-88
2020/12/23 12:19:15;;;;;;;4.20;2.22;;;12.30;96.70;;;;;;4993347;28;20069;-88
2020/12/23 12:21:40;;;;;;;2.90;1.75;;;12.30;96.60;;;;;;4996429;28;20025;-88
2020/12/23 12:24:06;;;;;;;3.63;2.08;;;12.30;96.60;;;;;;4995677;28;20026;-88
2020/12/23 12:26:32;;;;;;;2.35;1.85;;;12.30;96.60;;;;;;4983185;28;20065;-89
2020/12/23 12:28:59;;;;;;;6.43;1.75;;;12.30;96.80;;;;;;5007956;28;20042;-88
2020/12/23 12:31:25;;;;;;;4.65;1.45;;;12.30;96.60;;;;;;4996573;28;20028;-87
2020/12/23 12:33:51;;;;;;;1.95;0.95;;;12.30;96.60;;;;;;5007889;28;20026;-88